No particular awareness of the weather is required.    There are no Weather-warnings


Meteo18 Weather Cam more information Meteo18 Weather Cam


Thunder radar more information blitzortung!


Rain radar more information rain snow radar


Visit our other weather sites:

Template documentation
and downloads

And another site



Weather Underground History page Text

Daily Summary for April 28, 2017 Units:  Both    English   Metric
« Previous Day
Next Day »
Daily Weekly Monthly Yearly Custom
  High: Low: Average:
Temperature: TemperatureC °F /  -17.8 °C 1.4 °F /  -17 °C 6.9 °F /  -13.9 °C
Dew Point: DewpointC °F /  -17.8 °C -1.5 °F /  -18.6 °C 1.8 °F /  -16.8 °C
Humidity: Humidity % 56 % 70 %
Wind Speed: WindSpeedKMH mph /  0 km/h - 3 mph /  4.8 km/h
Wind Gust: WindSpeedGustKMH mph /  0 km/h - -
Wind:- - West
Pressure: PressurehPa in /  0 hPa 1017.8 in /  34462.7 hPa -
Precipitation: 0.0 in /  0 mm    
Historical Graphs
 
 
Tabular Data for April 28, 2017
Time Temperature Dew Point Pressure Wind Wind Speed Wind Gust Humidity Rainfall Rate (Hourly)
TemperatureC °F /  -17.8 °C DewpointC °F /  -17.8 °C PressurehPa in /  0 hPa Calm     Humidity % HourlyPrecipMM in /  0 mm
00:02 4.2 °F /  -15.4 °C 0.3 °F /  -17.6 °C 1018.5 in /  34486.4 hPa WNW 9.7 mph /  15.6 km/h 11.3 mph /  18.2 km/h 76 % 0.0 in /  0 mm
00:12 4.1 °F /  -15.5 °C 0.3 °F /  -17.6 °C 1018.5 in /  34486.4 hPa WNW 3.2 mph /  5.1 km/h 12.9 mph /  20.8 km/h 76 % 0.0 in /  0 mm
00:17 4.0 °F /  -15.6 °C 0.2 °F /  -17.7 °C 1018.8 in /  34496.6 hPa WNW 6.4 mph /  10.3 km/h 12.9 mph /  20.8 km/h 76 % 0.0 in /  0 mm
00:22 3.9 °F /  -15.6 °C 0.2 °F /  -17.7 °C 1018.8 in /  34496.6 hPa WNW 8.0 mph /  12.9 km/h 12.9 mph /  20.8 km/h 77 % 0.0 in /  0 mm
00:32 3.9 °F /  -15.6 °C 0.1 °F /  -17.7 °C 1018.5 in /  34486.4 hPa WNW 3.2 mph /  5.1 km/h 12.9 mph /  20.8 km/h 76 % 0.0 in /  0 mm
00:42 3.8 °F /  -15.7 °C 0.1 °F /  -17.7 °C 1018.5 in /  34486.4 hPa North 3.2 mph /  5.1 km/h 12.9 mph /  20.8 km/h 77 % 0.0 in /  0 mm
00:52 3.8 °F /  -15.7 °C 0.1 °F /  -17.7 °C 1018.5 in /  34486.4 hPa NW 4.8 mph /  7.7 km/h 12.9 mph /  20.8 km/h 77 % 0.0 in /  0 mm
00:57 3.7 °F /  -15.7 °C 0.0 °F /  -17.8 °C 1018.8 in /  34496.6 hPa West 1.6 mph /  2.6 km/h 11.3 mph /  18.2 km/h 77 % 0.0 in /  0 mm
01:02 3.7 °F /  -15.7 °C 0.0 °F /  -17.8 °C 1018.8 in /  34496.6 hPa WNW 4.8 mph /  7.7 km/h 11.3 mph /  18.2 km/h 77 % 0.0 in /  0 mm
01:12 3.6 °F /  -15.8 °C -0.1 °F /  -17.8 °C 1018.8 in /  34496.6 hPa NW 4.8 mph /  7.7 km/h 11.3 mph /  18.2 km/h 77 % 0.0 in /  0 mm
01:17 3.6 °F /  -15.8 °C -0.1 °F /  -17.8 °C 1018.8 in /  34496.6 hPa NNW 4.8 mph /  7.7 km/h 8.0 mph /  12.9 km/h 77 % 0.0 in /  0 mm
01:22 3.6 °F /  -15.8 °C -0.1 °F /  -17.8 °C 1018.8 in /  34496.6 hPa NNW 4.8 mph /  7.7 km/h 9.7 mph /  15.6 km/h 77 % 0.0 in /  0 mm
01:32 3.3 °F /  -15.9 °C -0.3 °F /  -17.9 °C 1018.8 in /  34496.6 hPa WNW 3.2 mph /  5.1 km/h 9.7 mph /  15.6 km/h 77 % 0.0 in /  0 mm
01:42 3.0 °F /  -16.1 °C -0.3 °F /  -17.9 °C 1018.8 in /  34496.6 hPa Calm   8.0 mph /  12.9 km/h 79 % 0.0 in /  0 mm
01:47 3.1 °F /  -16.1 °C -0.4 °F /  -18 °C 1018.8 in /  34496.6 hPa Calm   4.8 mph /  7.7 km/h 78 % 0.0 in /  0 mm
01:52 3.1 °F /  -16.1 °C -0.4 °F /  -18 °C 1018.5 in /  34486.4 hPa WNW 1.6 mph /  2.6 km/h 4.8 mph /  7.7 km/h 78 % 0.0 in /  0 mm
01:57 3.2 °F /  -16 °C -0.3 °F /  -17.9 °C 1018.5 in /  34486.4 hPa NW 3.2 mph /  5.1 km/h 3.2 mph /  5.1 km/h 78 % 0.0 in /  0 mm
02:02 3.3 °F /  -15.9 °C -0.2 °F /  -17.9 °C 1018.5 in /  34486.4 hPa NNW 3.2 mph /  5.1 km/h 4.8 mph /  7.7 km/h 78 % 0.0 in /  0 mm
02:07 3.4 °F /  -15.9 °C -0.2 °F /  -17.9 °C 1018.5 in /  34486.4 hPa NW 4.8 mph /  7.7 km/h 6.4 mph /  10.3 km/h 77 % 0.0 in /  0 mm
02:12 3.6 °F /  -15.8 °C -0.1 °F /  -17.8 °C 1018.5 in /  34486.4 hPa WNW 1.6 mph /  2.6 km/h 6.4 mph /  10.3 km/h 77 % 0.0 in /  0 mm
02:17 3.7 °F /  -15.7 °C 0.0 °F /  -17.8 °C 1018.5 in /  34486.4 hPa NW 3.2 mph /  5.1 km/h 9.7 mph /  15.6 km/h 77 % 0.0 in /  0 mm
02:22 3.8 °F /  -15.7 °C 0.0 °F /  -17.8 °C 1018.5 in /  34486.4 hPa NNW 1.6 mph /  2.6 km/h 9.7 mph /  15.6 km/h 76 % 0.0 in /  0 mm
02:32 3.7 °F /  -15.7 °C -0.1 °F /  -17.8 °C 1018.5 in /  34486.4 hPa NW 4.8 mph /  7.7 km/h 9.7 mph /  15.6 km/h 76 % 0.0 in /  0 mm
02:42 3.6 °F /  -15.8 °C -0.2 °F /  -17.9 °C 1018.5 in /  34486.4 hPa WNW 6.4 mph /  10.3 km/h 8.0 mph /  12.9 km/h 76 % 0.0 in /  0 mm
02:52 3.4 °F /  -15.9 °C -0.4 °F /  -18 °C 1018.5 in /  34486.4 hPa NNW 4.8 mph /  7.7 km/h 11.3 mph /  18.2 km/h 76 % 0.0 in /  0 mm
02:57 3.4 °F /  -15.9 °C -0.4 °F /  -18 °C 1018.5 in /  34486.4 hPa North 3.2 mph /  5.1 km/h 8.0 mph /  12.9 km/h 76 % 0.0 in /  0 mm
03:02 3.2 °F /  -16 °C -0.4 °F /  -18 °C 1018.5 in /  34486.4 hPa NNW 1.6 mph /  2.6 km/h 8.0 mph /  12.9 km/h 77 % 0.0 in /  0 mm
03:12 3.2 °F /  -16 °C -0.4 °F /  -18 °C 1018.5 in /  34486.4 hPa WNW 1.6 mph /  2.6 km/h 8.0 mph /  12.9 km/h 77 % 0.0 in /  0 mm
03:17 3.3 °F /  -15.9 °C -0.3 °F /  -17.9 °C 1018.5 in /  34486.4 hPa NNW 1.6 mph /  2.6 km/h 8.0 mph /  12.9 km/h 77 % 0.0 in /  0 mm
03:22 3.3 °F /  -15.9 °C -0.3 °F /  -17.9 °C 1018.5 in /  34486.4 hPa WNW 1.6 mph /  2.6 km/h 8.0 mph /  12.9 km/h 77 % 0.0 in /  0 mm
03:27 3.2 °F /  -16 °C -0.4 °F /  -18 °C 1018.5 in /  34486.4 hPa North 3.2 mph /  5.1 km/h 8.0 mph /  12.9 km/h 77 % 0.0 in /  0 mm
03:32 3.1 °F /  -16.1 °C -0.5 °F /  -18.1 °C 1018.5 in /  34486.4 hPa NNW 3.2 mph /  5.1 km/h 4.8 mph /  7.7 km/h 77 % 0.0 in /  0 mm
03:42 2.9 °F /  -16.2 °C -0.7 °F /  -18.2 °C 1018.5 in /  34486.4 hPa NNW 4.8 mph /  7.7 km/h 6.4 mph /  10.3 km/h 77 % 0.0 in /  0 mm
03:47 2.8 °F /  -16.2 °C -0.7 °F /  -18.2 °C 1018.5 in /  34486.4 hPa NNW 3.2 mph /  5.1 km/h 9.7 mph /  15.6 km/h 78 % 0.0 in /  0 mm
03:52 2.8 °F /  -16.2 °C -0.7 °F /  -18.2 °C 1018.5 in /  34486.4 hPa NNW 1.6 mph /  2.6 km/h 9.7 mph /  15.6 km/h 78 % 0.0 in /  0 mm
03:57 2.8 °F /  -16.2 °C -0.7 °F /  -18.2 °C 1018.5 in /  34486.4 hPa NNW 3.2 mph /  5.1 km/h 9.7 mph /  15.6 km/h 78 % 0.0 in /  0 mm
04:02 2.8 °F /  -16.2 °C -0.7 °F /  -18.2 °C 1018.5 in /  34486.4 hPa NNW 1.6 mph /  2.6 km/h 6.4 mph /  10.3 km/h 78 % 0.0 in /  0 mm
04:12 2.7 °F /  -16.3 °C -0.8 °F /  -18.2 °C 1018.5 in /  34486.4 hPa North 1.6 mph /  2.6 km/h 6.4 mph /  10.3 km/h 78 % 0.0 in /  0 mm
04:17 2.7 °F /  -16.3 °C -0.8 °F /  -18.2 °C 1018.5 in /  34486.4 hPa Calm   9.7 mph /  15.6 km/h 78 % 0.0 in /  0 mm
04:22 2.6 °F /  -16.3 °C -0.8 °F /  -18.2 °C 1018.2 in /  34476.3 hPa NNW 3.2 mph /  5.1 km/h 9.7 mph /  15.6 km/h 78 % 0.0 in /  0 mm
04:27 2.6 °F /  -16.3 °C -0.8 °F /  -18.2 °C 1018.2 in /  34476.3 hPa NNW 3.2 mph /  5.1 km/h 9.7 mph /  15.6 km/h 78 % 0.0 in /  0 mm
04:32 2.6 °F /  -16.3 °C -0.8 °F /  -18.2 °C 1018.2 in /  34476.3 hPa NW 3.2 mph /  5.1 km/h 8.0 mph /  12.9 km/h 78 % 0.0 in /  0 mm
04:42 2.3 °F /  -16.5 °C -1.0 °F /  -18.3 °C 1018.2 in /  34476.3 hPa NW 4.8 mph /  7.7 km/h 8.0 mph /  12.9 km/h 79 % 0.0 in /  0 mm
04:47 2.2 °F /  -16.6 °C -1.1 °F /  -18.4 °C 1018.5 in /  34486.4 hPa Calm   8.0 mph /  12.9 km/h 79 % 0.0 in /  0 mm
04:52 2.2 °F /  -16.6 °C -1.1 °F /  -18.4 °C 1018.2 in /  34476.3 hPa North 3.2 mph /  5.1 km/h 8.0 mph /  12.9 km/h 79 % 0.0 in /  0 mm
04:57 2.2 °F /  -16.6 °C -1.1 °F /  -18.4 °C 1018.2 in /  34476.3 hPa NNW 3.2 mph /  5.1 km/h 6.4 mph /  10.3 km/h 79 % 0.0 in /  0 mm
05:02 2.2 °F /  -16.6 °C -1.1 °F /  -18.4 °C 1018.2 in /  34476.3 hPa NNW 4.8 mph /  7.7 km/h 6.4 mph /  10.3 km/h 79 % 0.0 in /  0 mm
05:12 2.2 °F /  -16.6 °C -1.1 °F /  -18.4 °C 1018.2 in /  34476.3 hPa Calm   8.0 mph /  12.9 km/h 79 % 0.0 in /  0 mm
05:17 2.1 °F /  -16.6 °C -1.2 °F /  -18.4 °C 1018.2 in /  34476.3 hPa North 3.2 mph /  5.1 km/h 8.0 mph /  12.9 km/h 79 % 0.0 in /  0 mm
05:22 2.1 °F /  -16.6 °C -1.0 °F /  -18.3 °C 1018.2 in /  34476.3 hPa Calm   8.0 mph /  12.9 km/h 80 % 0.0 in /  0 mm
05:32 2.1 °F /  -16.6 °C -1.2 °F /  -18.4 °C 1018.2 in /  34476.3 hPa NNW 3.2 mph /  5.1 km/h 4.8 mph /  7.7 km/h 79 % 0.0 in /  0 mm
05:42 2.2 °F /  -16.6 °C -1.1 °F /  -18.4 °C 1018.2 in /  34476.3 hPa NNW 3.2 mph /  5.1 km/h 6.4 mph /  10.3 km/h 79 % 0.0 in /  0 mm
05:52 2.1 °F /  -16.6 °C -1.2 °F /  -18.4 °C 1017.8 in /  34462.7 hPa NNW 4.8 mph /  7.7 km/h 8.0 mph /  12.9 km/h 79 % 0.0 in /  0 mm
06:02 2.1 °F /  -16.6 °C -1.2 °F /  -18.4 °C 1017.8 in /  34462.7 hPa NNE 3.2 mph /  5.1 km/h 8.0 mph /  12.9 km/h 79 % 0.0 in /  0 mm
06:12 2.1 °F /  -16.6 °C -1.2 °F /  -18.4 °C 1017.8 in /  34462.7 hPa Calm   8.0 mph /  12.9 km/h 79 % 0.0 in /  0 mm
06:17 2.1 °F /  -16.6 °C -1.2 °F /  -18.4 °C 1017.8 in /  34462.7 hPa NW 1.6 mph /  2.6 km/h 8.0 mph /  12.9 km/h 79 % 0.0 in /  0 mm
06:22 2.2 °F /  -16.6 °C -1.2 °F /  -18.4 °C 1017.8 in /  34462.7 hPa Calm   8.0 mph /  12.9 km/h 78 % 0.0 in /  0 mm
06:32 2.2 °F /  -16.6 °C -1.2 °F /  -18.4 °C 1017.8 in /  34462.7 hPa NW 1.6 mph /  2.6 km/h 9.7 mph /  15.6 km/h 78 % 0.0 in /  0 mm
06:37 2.2 °F /  -16.6 °C -1.2 °F /  -18.4 °C 1017.8 in /  34462.7 hPa NW 1.6 mph /  2.6 km/h 9.7 mph /  15.6 km/h 78 % 0.0 in /  0 mm
06:42 2.1 °F /  -16.6 °C -1.3 °F /  -18.5 °C 1017.8 in /  34462.7 hPa WNW 1.6 mph /  2.6 km/h 9.7 mph /  15.6 km/h 78 % 0.0 in /  0 mm
06:47 1.9 °F /  -16.7 °C -1.4 °F /  -18.6 °C 1018.2 in /  34476.3 hPa Calm   9.7 mph /  15.6 km/h 79 % 0.0 in /  0 mm
06:52 1.8 °F /  -16.8 °C -1.5 °F /  -18.6 °C 1018.2 in /  34476.3 hPa Calm   9.7 mph /  15.6 km/h 79 % 0.0 in /  0 mm
06:57 1.8 °F /  -16.8 °C -1.5 °F /  -18.6 °C 1018.2 in /  34476.3 hPa WNW 1.6 mph /  2.6 km/h 6.4 mph /  10.3 km/h 79 % 0.0 in /  0 mm
07:02 1.8 °F /  -16.8 °C -1.5 °F /  -18.6 °C 1018.2 in /  34476.3 hPa Calm   6.4 mph /  10.3 km/h 79 % 0.0 in /  0 mm
07:12 1.7 °F /  -16.8 °C -1.4 °F /  -18.6 °C 1018.2 in /  34476.3 hPa Calm   6.4 mph /  10.3 km/h 80 % 0.0 in /  0 mm
07:17 1.6 °F /  -16.9 °C -1.5 °F /  -18.6 °C 1018.5 in /  34486.4 hPa Calm   6.4 mph /  10.3 km/h 80 % 0.0 in /  0 mm
07:22 1.6 °F /  -16.9 °C -1.3 °F /  -18.5 °C 1018.5 in /  34486.4 hPa Calm   4.8 mph /  7.7 km/h 81 % 0.0 in /  0 mm
07:32 1.4 °F /  -17 °C -1.5 °F /  -18.6 °C 1018.5 in /  34486.4 hPa Calm   1.6 mph /  2.6 km/h 81 % 0.0 in /  0 mm
07:42 1.4 °F /  -17 °C -1.3 °F /  -18.5 °C 1018.5 in /  34486.4 hPa Calm   3.2 mph /  5.1 km/h 82 % 0.0 in /  0 mm
07:52 1.7 °F /  -16.8 °C -1.2 °F /  -18.4 °C 1018.8 in /  34496.6 hPa Calm     81 % 0.0 in /  0 mm
07:57 1.8 °F /  -16.8 °C -0.9 °F /  -18.3 °C 1018.8 in /  34496.6 hPa Calm     82 % 0.0 in /  0 mm
08:02 2.3 °F /  -16.5 °C -0.5 °F /  -18.1 °C 1018.8 in /  34496.6 hPa Calm   1.6 mph /  2.6 km/h 82 % 0.0 in /  0 mm
08:12 3.2 °F /  -16 °C -0.3 °F /  -17.9 °C 1018.5 in /  34486.4 hPa Calm   1.6 mph /  2.6 km/h 78 % 0.0 in /  0 mm
08:17 3.2 °F /  -16 °C -0.3 °F /  -17.9 °C 1018.8 in /  34496.6 hPa Calm   1.6 mph /  2.6 km/h 78 % 0.0 in /  0 mm
08:22 3.6 °F /  -15.8 °C 0.1 °F /  -17.7 °C 1018.8 in /  34496.6 hPa Calm     78 % 0.0 in /  0 mm
08:32 4.9 °F /  -15.1 °C 0.5 °F /  -17.5 °C 1018.8 in /  34496.6 hPa Calm     73 % 0.0 in /  0 mm
08:42 5.3 °F /  -14.8 °C 1.0 °F /  -17.2 °C 1018.8 in /  34496.6 hPa Calm     74 % 0.0 in /  0 mm
08:47 6.2 °F /  -14.3 °C 1.9 °F /  -16.7 °C 1018.8 in /  34496.6 hPa Calm     74 % 0.0 in /  0 mm
08:57 7.8 °F /  -13.4 °C 1.4 °F /  -17 °C 1018.8 in /  34496.6 hPa Calm     64 % 0.0 in /  0 mm
09:02 7.2 °F /  -13.8 °C 1.1 °F /  -17.2 °C 1018.8 in /  34496.6 hPa Calm     65 % 0.0 in /  0 mm
09:12 7.0 °F /  -13.9 °C 0.9 °F /  -17.3 °C 1018.8 in /  34496.6 hPa West 1.6 mph /  2.6 km/h 8.0 mph /  12.9 km/h 65 % 0.0 in /  0 mm
09:17 6.9 °F /  -13.9 °C 1.0 °F /  -17.2 °C 1018.8 in /  34496.6 hPa WNW 3.2 mph /  5.1 km/h 8.0 mph /  12.9 km/h 66 % 0.0 in /  0 mm
09:22 6.8 °F /  -14 °C 0.9 °F /  -17.3 °C 1018.8 in /  34496.6 hPa WNW 4.8 mph /  7.7 km/h 8.0 mph /  12.9 km/h 66 % 0.0 in /  0 mm
09:27 6.7 °F /  -14.1 °C 1.2 °F /  -17.1 °C 1018.8 in /  34496.6 hPa WNW 6.4 mph /  10.3 km/h 8.0 mph /  12.9 km/h 68 % 0.0 in /  0 mm
09:32 6.7 °F /  -14.1 °C 1.4 °F /  -17 °C 1018.8 in /  34496.6 hPa NW 1.6 mph /  2.6 km/h 8.0 mph /  12.9 km/h 69 % 0.0 in /  0 mm
09:42 7.0 °F /  -13.9 °C 1.5 °F /  -16.9 °C 1018.8 in /  34496.6 hPa Calm   8.0 mph /  12.9 km/h 68 % 0.0 in /  0 mm
09:47 7.1 °F /  -13.8 °C 1.4 °F /  -17 °C 1018.8 in /  34496.6 hPa NW 3.2 mph /  5.1 km/h 8.0 mph /  12.9 km/h 67 % 0.0 in /  0 mm
09:52 7.1 °F /  -13.8 °C 1.6 °F /  -16.9 °C 1018.8 in /  34496.6 hPa West 4.8 mph /  7.7 km/h 4.8 mph /  7.7 km/h 68 % 0.0 in /  0 mm
10:02 6.9 °F /  -13.9 °C 1.2 °F /  -17.1 °C 1018.8 in /  34496.6 hPa Calm   6.4 mph /  10.3 km/h 67 % 0.0 in /  0 mm
10:12 7.2 °F /  -13.8 °C 1.5 °F /  -16.9 °C 1018.8 in /  34496.6 hPa WNW 3.2 mph /  5.1 km/h 4.8 mph /  7.7 km/h 67 % 0.0 in /  0 mm
10:17 7.3 °F /  -13.7 °C 1.8 °F /  -16.8 °C 1018.8 in /  34496.6 hPa Calm   4.8 mph /  7.7 km/h 68 % 0.0 in /  0 mm
10:22 7.3 °F /  -13.7 °C 1.6 °F /  -16.9 °C 1018.8 in /  34496.6 hPa SW 3.2 mph /  5.1 km/h 6.4 mph /  10.3 km/h 67 % 0.0 in /  0 mm
10:32 7.4 °F /  -13.7 °C 1.9 °F /  -16.7 °C 1018.8 in /  34496.6 hPa WSW 3.2 mph /  5.1 km/h 6.4 mph /  10.3 km/h 68 % 0.0 in /  0 mm
10:37 7.4 °F /  -13.7 °C 1.9 °F /  -16.7 °C 1018.8 in /  34496.6 hPa WSW 1.6 mph /  2.6 km/h 6.4 mph /  10.3 km/h 68 % 0.0 in /  0 mm
10:42 7.7 °F /  -13.5 °C 2.2 °F /  -16.6 °C 1018.8 in /  34496.6 hPa West 1.6 mph /  2.6 km/h 6.4 mph /  10.3 km/h 68 % 0.0 in /  0 mm
10:47 7.9 °F /  -13.4 °C 1.7 °F /  -16.8 °C 1018.8 in /  34496.6 hPa West 4.8 mph /  7.7 km/h 6.4 mph /  10.3 km/h 65 % 0.0 in /  0 mm
10:57 8.2 °F /  -13.2 °C 1.4 °F /  -17 °C 1018.8 in /  34496.6 hPa West 8.0 mph /  12.9 km/h 12.9 mph /  20.8 km/h 62 % 0.0 in /  0 mm
11:02 8.3 °F /  -13.2 °C 1.9 °F /  -16.7 °C 1018.8 in /  34496.6 hPa WSW 1.6 mph /  2.6 km/h 16.1 mph /  25.9 km/h 64 % 0.0 in /  0 mm
11:12 8.4 °F /  -13.1 °C 1.8 °F /  -16.8 °C 1018.8 in /  34496.6 hPa West 9.7 mph /  15.6 km/h 16.1 mph /  25.9 km/h 63 % 0.0 in /  0 mm
11:17 8.4 °F /  -13.1 °C 1.1 °F /  -17.2 °C 1018.8 in /  34496.6 hPa WSW 14.5 mph /  23.3 km/h 16.1 mph /  25.9 km/h 60 % 0.0 in /  0 mm
11:22 8.4 °F /  -13.1 °C 1.1 °F /  -17.2 °C 1018.8 in /  34496.6 hPa SW 8.0 mph /  12.9 km/h 17.7 mph /  28.5 km/h 60 % 0.0 in /  0 mm
11:27 8.5 °F /  -13.1 °C 1.2 °F /  -17.1 °C 1018.8 in /  34496.6 hPa West 16.1 mph /  25.9 km/h 17.7 mph /  28.5 km/h 60 % 0.0 in /  0 mm
11:32 8.5 °F /  -13.1 °C 0.9 °F /  -17.3 °C 1018.8 in /  34496.6 hPa WNW 6.4 mph /  10.3 km/h 20.9 mph /  33.6 km/h 59 % 0.0 in /  0 mm
11:42 8.6 °F /  -13 °C 1.3 °F /  -17.1 °C 1018.8 in /  34496.6 hPa WSW 4.8 mph /  7.7 km/h 20.9 mph /  33.6 km/h 60 % 0.0 in /  0 mm
11:47 8.6 °F /  -13 °C 1.0 °F /  -17.2 °C 1019.2 in /  34510.1 hPa WSW 6.4 mph /  10.3 km/h 20.9 mph /  33.6 km/h 59 % 0.0 in /  0 mm
11:52 8.6 °F /  -13 °C 1.0 °F /  -17.2 °C 1019.2 in /  34510.1 hPa West 8.0 mph /  12.9 km/h 16.1 mph /  25.9 km/h 59 % 0.0 in /  0 mm
11:57 8.6 °F /  -13 °C 0.8 °F /  -17.3 °C 1019.2 in /  34510.1 hPa West 4.8 mph /  7.7 km/h 16.1 mph /  25.9 km/h 58 % 0.0 in /  0 mm
12:02 8.6 °F /  -13 °C 0.8 °F /  -17.3 °C 1018.8 in /  34496.6 hPa WNW 8.0 mph /  12.9 km/h 16.1 mph /  25.9 km/h 58 % 0.0 in /  0 mm
12:12 8.8 °F /  -12.9 °C 1.2 °F /  -17.1 °C 1018.8 in /  34496.6 hPa SSE 1.6 mph /  2.6 km/h 12.9 mph /  20.8 km/h 59 % 0.0 in /  0 mm
12:17 8.9 °F /  -12.8 °C 1.1 °F /  -17.2 °C 1018.8 in /  34496.6 hPa WSW 9.7 mph /  15.6 km/h 12.9 mph /  20.8 km/h 58 % 0.0 in /  0 mm
12:22 9.1 °F /  -12.7 °C 1.5 °F /  -16.9 °C 1018.8 in /  34496.6 hPa SW 1.6 mph /  2.6 km/h 12.9 mph /  20.8 km/h 59 % 0.0 in /  0 mm
12:32 9.3 °F /  -12.6 °C 1.7 °F /  -16.8 °C 1018.8 in /  34496.6 hPa WNW 6.4 mph /  10.3 km/h 12.9 mph /  20.8 km/h 59 % 0.0 in /  0 mm
12:42 9.7 °F /  -12.4 °C 2.1 °F /  -16.6 °C 1018.8 in /  34496.6 hPa West 11.3 mph /  18.2 km/h 11.3 mph /  18.2 km/h 59 % 0.0 in /  0 mm
12:47 9.7 °F /  -12.4 °C 1.6 °F /  -16.9 °C 1018.8 in /  34496.6 hPa West 6.4 mph /  10.3 km/h 9.7 mph /  15.6 km/h 57 % 0.0 in /  0 mm
12:52 9.8 °F /  -12.3 °C 1.7 °F /  -16.8 °C 1018.8 in /  34496.6 hPa West 8.0 mph /  12.9 km/h 12.9 mph /  20.8 km/h 57 % 0.0 in /  0 mm
13:02 9.5 °F /  -12.5 °C 1.2 °F /  -17.1 °C 1018.8 in /  34496.6 hPa West 4.8 mph /  7.7 km/h 12.9 mph /  20.8 km/h 56 % 0.0 in /  0 mm
13:12 9.4 °F /  -12.6 °C 1.6 °F /  -16.9 °C 1018.8 in /  34496.6 hPa West 6.4 mph /  10.3 km/h 11.3 mph /  18.2 km/h 58 % 0.0 in /  0 mm
13:17 9.4 °F /  -12.6 °C 1.1 °F /  -17.2 °C 1018.8 in /  34496.6 hPa WSW 3.2 mph /  5.1 km/h 11.3 mph /  18.2 km/h 56 % 0.0 in /  0 mm
13:22 9.6 °F /  -12.4 °C 1.5 °F /  -16.9 °C 1018.8 in /  34496.6 hPa West 1.6 mph /  2.6 km/h 11.3 mph /  18.2 km/h 57 % 0.0 in /  0 mm
13:32 9.9 °F /  -12.3 °C 1.8 °F /  -16.8 °C 1018.8 in /  34496.6 hPa WSW 6.4 mph /  10.3 km/h 11.3 mph /  18.2 km/h 57 % 0.0 in /  0 mm
13:42 9.9 °F /  -12.3 °C 2.0 °F /  -16.7 °C 1018.8 in /  34496.6 hPa NW 4.8 mph /  7.7 km/h 12.9 mph /  20.8 km/h 58 % 0.0 in /  0 mm
13:47 9.9 °F /  -12.3 °C 1.8 °F /  -16.8 °C 1018.8 in /  34496.6 hPa WNW 8.0 mph /  12.9 km/h 12.9 mph /  20.8 km/h 57 % 0.0 in /  0 mm
13:57 9.7 °F /  -12.4 °C 1.8 °F /  -16.8 °C 1018.8 in /  34496.6 hPa WNW 3.2 mph /  5.1 km/h 12.9 mph /  20.8 km/h 58 % 0.0 in /  0 mm
14:02 9.7 °F /  -12.4 °C 2.1 °F /  -16.6 °C 1018.8 in /  34496.6 hPa West 8.0 mph /  12.9 km/h 11.3 mph /  18.2 km/h 59 % 0.0 in /  0 mm
14:12 9.8 °F /  -12.3 °C 2.4 °F /  -16.4 °C 1018.8 in /  34496.6 hPa WNW 8.0 mph /  12.9 km/h 12.9 mph /  20.8 km/h 60 % 0.0 in /  0 mm
14:17 9.8 °F /  -12.3 °C 2.4 °F /  -16.4 °C 1018.8 in /  34496.6 hPa West 1.6 mph /  2.6 km/h 12.9 mph /  20.8 km/h 60 % 0.0 in /  0 mm
14:22 9.9 °F /  -12.3 °C 2.5 °F /  -16.4 °C 1018.8 in /  34496.6 hPa WNW 8.0 mph /  12.9 km/h 14.5 mph /  23.3 km/h 60 % 0.0 in /  0 mm
14:27 10.1 °F /  -12.2 °C 2.7 °F /  -16.3 °C 1018.8 in /  34496.6 hPa WNW 1.6 mph /  2.6 km/h 14.5 mph /  23.3 km/h 60 % 0.0 in /  0 mm
14:32 10.3 °F /  -12.1 °C 2.6 °F /  -16.3 °C 1018.8 in /  34496.6 hPa NW 1.6 mph /  2.6 km/h 12.9 mph /  20.8 km/h 59 % 0.0 in /  0 mm
14:42 10.2 °F /  -12.1 °C 2.8 °F /  -16.2 °C 1018.8 in /  34496.6 hPa West 6.4 mph /  10.3 km/h 12.9 mph /  20.8 km/h 60 % 0.0 in /  0 mm
14:47 10.1 °F /  -12.2 °C 2.4 °F /  -16.4 °C 1018.8 in /  34496.6 hPa SSW 3.2 mph /  5.1 km/h 16.1 mph /  25.9 km/h 59 % 0.0 in /  0 mm
14:52 10.2 °F /  -12.1 °C 3.0 °F /  -16.1 °C 1018.8 in /  34496.6 hPa Calm   16.1 mph /  25.9 km/h 61 % 0.0 in /  0 mm
14:57 10.3 °F /  -12.1 °C 2.9 °F /  -16.2 °C 1018.8 in /  34496.6 hPa NW 4.8 mph /  7.7 km/h 9.7 mph /  15.6 km/h 60 % 0.0 in /  0 mm
15:02 10.2 °F /  -12.1 °C 2.8 °F /  -16.2 °C 1018.8 in /  34496.6 hPa WNW 4.8 mph /  7.7 km/h 9.7 mph /  15.6 km/h 60 % 0.0 in /  0 mm
15:12 10.1 °F /  -12.2 °C 2.9 °F /  -16.2 °C 1018.8 in /  34496.6 hPa WSW 6.4 mph /  10.3 km/h 9.7 mph /  15.6 km/h 61 % 0.0 in /  0 mm
15:17 10.1 °F /  -12.2 °C 3.1 °F /  -16.1 °C 1018.8 in /  34496.6 hPa West 4.8 mph /  7.7 km/h 9.7 mph /  15.6 km/h 62 % 0.0 in /  0 mm
15:22 10.0 °F /  -12.2 °C 3.1 °F /  -16.1 °C 1018.8 in /  34496.6 hPa WNW 9.7 mph /  15.6 km/h 11.3 mph /  18.2 km/h 62 % 0.0 in /  0 mm
15:27 10.0 °F /  -12.2 °C 3.5 °F /  -15.8 °C 1018.8 in /  34496.6 hPa WNW 3.2 mph /  5.1 km/h 12.9 mph /  20.8 km/h 64 % 0.0 in /  0 mm
15:32 10.3 °F /  -12.1 °C 3.8 °F /  -15.7 °C 1018.8 in /  34496.6 hPa WSW 4.8 mph /  7.7 km/h 12.9 mph /  20.8 km/h 64 % 0.0 in /  0 mm
15:42 10.5 °F /  -11.9 °C 3.8 °F /  -15.7 °C 1018.8 in /  34496.6 hPa West 8.0 mph /  12.9 km/h 12.9 mph /  20.8 km/h 63 % 0.0 in /  0 mm
15:47 10.8 °F /  -11.8 °C 3.6 °F /  -15.8 °C 1018.5 in /  34486.4 hPa WNW 3.2 mph /  5.1 km/h 14.5 mph /  23.3 km/h 61 % 0.0 in /  0 mm
15:52 11.0 °F /  -11.7 °C 3.5 °F /  -15.8 °C 1018.5 in /  34486.4 hPa West 9.7 mph /  15.6 km/h 14.5 mph /  23.3 km/h 60 % 0.0 in /  0 mm
15:57 11.0 °F /  -11.7 °C 3.5 °F /  -15.8 °C 1018.5 in /  34486.4 hPa West 1.6 mph /  2.6 km/h 16.1 mph /  25.9 km/h 60 % 0.0 in /  0 mm
16:02 11.1 °F /  -11.6 °C 3.6 °F /  -15.8 °C 1018.5 in /  34486.4 hPa SW 8.0 mph /  12.9 km/h 16.1 mph /  25.9 km/h 60 % 0.0 in /  0 mm
16:12 11.2 °F /  -11.6 °C 3.7 °F /  -15.7 °C 1018.5 in /  34486.4 hPa West 4.8 mph /  7.7 km/h 16.1 mph /  25.9 km/h 60 % 0.0 in /  0 mm
16:22 11.3 °F /  -11.5 °C 4.1 °F /  -15.5 °C 1018.2 in /  34476.3 hPa West 8.0 mph /  12.9 km/h 16.1 mph /  25.9 km/h 61 % 0.0 in /  0 mm
16:32 11.4 °F /  -11.4 °C 3.7 °F /  -15.7 °C 1018.2 in /  34476.3 hPa West 6.4 mph /  10.3 km/h 14.5 mph /  23.3 km/h 59 % 0.0 in /  0 mm
16:42 11.9 °F /  -11.2 °C 3.6 °F /  -15.8 °C 1018.2 in /  34476.3 hPa SW 3.2 mph /  5.1 km/h 12.9 mph /  20.8 km/h 57 % 0.0 in /  0 mm
16:47 12.2 °F /  -11 °C 4.2 °F /  -15.4 °C 1018.2 in /  34476.3 hPa West 4.8 mph /  7.7 km/h 14.5 mph /  23.3 km/h 58 % 0.0 in /  0 mm
16:52 12.3 °F /  -10.9 °C 4.0 °F /  -15.6 °C 1018.2 in /  34476.3 hPa West 3.2 mph /  5.1 km/h 14.5 mph /  23.3 km/h 57 % 0.0 in /  0 mm
16:57 12.1 °F /  -11.1 °C 3.8 °F /  -15.7 °C 1018.2 in /  34476.3 hPa SW 3.2 mph /  5.1 km/h 14.5 mph /  23.3 km/h 57 % 0.0 in /  0 mm
17:02 12.0 °F /  -11.1 °C 3.7 °F /  -15.7 °C 1018.2 in /  34476.3 hPa SSW 6.4 mph /  10.3 km/h 14.5 mph /  23.3 km/h 57 % 0.0 in /  0 mm
17:07 11.9 °F /  -11.2 °C 3.4 °F /  -15.9 °C 1018.2 in /  34476.3 hPa SSW 1.6 mph /  2.6 km/h 14.5 mph /  23.3 km/h 56 % 0.0 in /  0 mm
17:12 11.9 °F /  -11.2 °C 3.6 °F /  -15.8 °C 1018.2 in /  34476.3 hPa West 3.2 mph /  5.1 km/h 14.5 mph /  23.3 km/h 57 % 0.0 in /  0 mm
17:17 11.9 °F /  -11.2 °C 3.9 °F /  -15.6 °C 1018.2 in /  34476.3 hPa SW 1.6 mph /  2.6 km/h 14.5 mph /  23.3 km/h 58 % 0.0 in /  0 mm
17:22 11.9 °F /  -11.2 °C 4.1 °F /  -15.5 °C 1018.2 in /  34476.3 hPa WSW 6.4 mph /  10.3 km/h 14.5 mph /  23.3 km/h 59 % 0.0 in /  0 mm
17:27 11.8 °F /  -11.2 °C 4.3 °F /  -15.4 °C 1018.2 in /  34476.3 hPa WSW 1.6 mph /  2.6 km/h 14.5 mph /  23.3 km/h 60 % 0.0 in /  0 mm
17:32 11.6 °F /  -11.3 °C 4.1 °F /  -15.5 °C 1018.2 in /  34476.3 hPa SSW 3.2 mph /  5.1 km/h 14.5 mph /  23.3 km/h 60 % 0.0 in /  0 mm
17:37 11.7 °F /  -11.3 °C 4.4 °F /  -15.3 °C 1018.2 in /  34476.3 hPa WSW 6.4 mph /  10.3 km/h 14.5 mph /  23.3 km/h 61 % 0.0 in /  0 mm
17:42 11.6 °F /  -11.3 °C 4.3 °F /  -15.4 °C 1018.2 in /  34476.3 hPa SW 1.6 mph /  2.6 km/h 14.5 mph /  23.3 km/h 61 % 0.0 in /  0 mm
17:47 11.7 °F /  -11.3 °C 4.0 °F /  -15.6 °C 1018.2 in /  34476.3 hPa SSE 8.0 mph /  12.9 km/h 14.5 mph /  23.3 km/h 59 % 0.0 in /  0 mm
17:52 11.6 °F /  -11.3 °C 4.1 °F /  -15.5 °C 1018.2 in /  34476.3 hPa SW 6.4 mph /  10.3 km/h 11.3 mph /  18.2 km/h 60 % 0.0 in /  0 mm
17:57 11.5 °F /  -11.4 °C 4.0 °F /  -15.6 °C 1018.2 in /  34476.3 hPa SW 3.2 mph /  5.1 km/h 11.3 mph /  18.2 km/h 60 % 0.0 in /  0 mm
18:02 11.4 °F /  -11.4 °C 3.7 °F /  -15.7 °C 1018.2 in /  34476.3 hPa SW 3.2 mph /  5.1 km/h 11.3 mph /  18.2 km/h 59 % 0.0 in /  0 mm
18:07 11.4 °F /  -11.4 °C 3.9 °F /  -15.6 °C 1018.2 in /  34476.3 hPa SW 1.6 mph /  2.6 km/h 8.0 mph /  12.9 km/h 60 % 0.0 in /  0 mm
18:12 11.4 °F /  -11.4 °C 3.9 °F /  -15.6 °C 1018.2 in /  34476.3 hPa SSW 3.2 mph /  5.1 km/h 8.0 mph /  12.9 km/h 60 % 0.0 in /  0 mm
18:17 11.3 °F /  -11.5 °C 4.1 °F /  -15.5 °C 1018.2 in /  34476.3 hPa WSW 1.6 mph /  2.6 km/h 6.4 mph /  10.3 km/h 61 % 0.0 in /  0 mm
18:22 11.2 °F /  -11.6 °C 4.0 °F /  -15.6 °C 1018.2 in /  34476.3 hPa WSW 3.2 mph /  5.1 km/h 6.4 mph /  10.3 km/h 61 % 0.0 in /  0 mm
18:32 11.1 °F /  -11.6 °C 4.1 °F /  -15.5 °C 1018.2 in /  34476.3 hPa South 1.6 mph /  2.6 km/h 6.4 mph /  10.3 km/h 62 % 0.0 in /  0 mm
18:42 11.1 °F /  -11.6 °C 4.3 °F /  -15.4 °C 1018.5 in /  34486.4 hPa SSW 6.4 mph /  10.3 km/h 6.4 mph /  10.3 km/h 63 % 0.0 in /  0 mm
18:52 11.1 °F /  -11.6 °C 5.2 °F /  -14.9 °C 1018.5 in /  34486.4 hPa West 3.2 mph /  5.1 km/h 8.0 mph /  12.9 km/h 67 % 0.0 in /  0 mm
18:57 11.0 °F /  -11.7 °C 5.1 °F /  -14.9 °C 1018.5 in /  34486.4 hPa WNW 1.6 mph /  2.6 km/h 8.0 mph /  12.9 km/h 67 % 0.0 in /  0 mm
19:02 11.0 °F /  -11.7 °C 4.7 °F /  -15.2 °C 1018.5 in /  34486.4 hPa WNW 1.6 mph /  2.6 km/h 8.0 mph /  12.9 km/h 65 % 0.0 in /  0 mm
19:12 11.1 °F /  -11.6 °C 5.0 °F /  -15 °C 1018.2 in /  34476.3 hPa Calm   4.8 mph /  7.7 km/h 66 % 0.0 in /  0 mm
19:17 11.2 °F /  -11.6 °C 5.1 °F /  -14.9 °C 1018.5 in /  34486.4 hPa WNW 1.6 mph /  2.6 km/h 3.2 mph /  5.1 km/h 66 % 0.0 in /  0 mm
19:22 11.6 °F /  -11.3 °C 5.2 °F /  -14.9 °C 1018.2 in /  34476.3 hPa Calm   3.2 mph /  5.1 km/h 65 % 0.0 in /  0 mm
19:32 12.4 °F /  -10.9 °C 5.3 °F /  -14.8 °C 1018.2 in /  34476.3 hPa Calm   4.8 mph /  7.7 km/h 62 % 0.0 in /  0 mm
19:42 12.0 °F /  -11.1 °C 4.5 °F /  -15.3 °C 1018.2 in /  34476.3 hPa West 1.6 mph /  2.6 km/h 4.8 mph /  7.7 km/h 60 % 0.0 in /  0 mm
19:52 11.9 °F /  -11.2 °C 4.6 °F /  -15.2 °C 1018.2 in /  34476.3 hPa Calm   1.6 mph /  2.6 km/h 61 % 0.0 in /  0 mm
19:57 11.9 °F /  -11.2 °C 4.6 °F /  -15.2 °C 1018.2 in /  34476.3 hPa SW 1.6 mph /  2.6 km/h 3.2 mph /  5.1 km/h 61 % 0.0 in /  0 mm
20:02 11.6 °F /  -11.3 °C 4.8 °F /  -15.1 °C 1018.2 in /  34476.3 hPa WSW 1.6 mph /  2.6 km/h 1.6 mph /  2.6 km/h 63 % 0.0 in /  0 mm
20:12 11.3 °F /  -11.5 °C 5.0 °F /  -15 °C 1018.5 in /  34486.4 hPa WSW 6.4 mph /  10.3 km/h 6.4 mph /  10.3 km/h 65 % 0.0 in /  0 mm
20:17 11.1 °F /  -11.6 °C 5.0 °F /  -15 °C 1018.5 in /  34486.4 hPa WSW 4.8 mph /  7.7 km/h 8.0 mph /  12.9 km/h 66 % 0.0 in /  0 mm
20:27 10.7 °F /  -11.8 °C 5.0 °F /  -15 °C 1018.5 in /  34486.4 hPa West 1.6 mph /  2.6 km/h 9.7 mph /  15.6 km/h 68 % 0.0 in /  0 mm
20:32 10.6 °F /  -11.9 °C 4.9 °F /  -15.1 °C 1018.5 in /  34486.4 hPa WSW 4.8 mph /  7.7 km/h 9.7 mph /  15.6 km/h 68 % 0.0 in /  0 mm
20:42 9.9 °F /  -12.3 °C 4.9 °F /  -15.1 °C 1018.5 in /  34486.4 hPa Calm   6.4 mph /  10.3 km/h 71 % 0.0 in /  0 mm
20:47 9.7 °F /  -12.4 °C 4.9 °F /  -15.1 °C 1018.5 in /  34486.4 hPa WSW 3.2 mph /  5.1 km/h 6.4 mph /  10.3 km/h 72 % 0.0 in /  0 mm
20:57 9.2 °F /  -12.7 °C 4.8 °F /  -15.1 °C 1018.5 in /  34486.4 hPa WSW 1.6 mph /  2.6 km/h 3.2 mph /  5.1 km/h 74 % 0.0 in /  0 mm
21:02 9.1 °F /  -12.7 °C 4.9 °F /  -15.1 °C 1018.5 in /  34486.4 hPa Calm   3.2 mph /  5.1 km/h 75 % 0.0 in /  0 mm
21:12 8.6 °F /  -13 °C 4.8 °F /  -15.1 °C 1018.8 in /  34496.6 hPa Calm   3.2 mph /  5.1 km/h 77 % 0.0 in /  0 mm
21:17 8.2 °F /  -13.2 °C 4.6 °F /  -15.2 °C 1018.8 in /  34496.6 hPa West 1.6 mph /  2.6 km/h 1.6 mph /  2.6 km/h 78 % 0.0 in /  0 mm
21:22 7.9 °F /  -13.4 °C 4.5 °F /  -15.3 °C 1018.8 in /  34496.6 hPa Calm   1.6 mph /  2.6 km/h 79 % 0.0 in /  0 mm
21:32 7.6 °F /  -13.6 °C 4.5 °F /  -15.3 °C 1018.8 in /  34496.6 hPa Calm   1.6 mph /  2.6 km/h 81 % 0.0 in /  0 mm
21:37 7.4 °F /  -13.7 °C 4.2 °F /  -15.4 °C 1018.8 in /  34496.6 hPa Calm   1.6 mph /  2.6 km/h 80 % 0.0 in /  0 mm
21:42 7.3 °F /  -13.7 °C 4.4 °F /  -15.3 °C 1018.8 in /  34496.6 hPa Calm   1.6 mph /  2.6 km/h 82 % 0.0 in /  0 mm
21:52 7.0 °F /  -13.9 °C 4.1 °F /  -15.5 °C 1018.8 in /  34496.6 hPa Calm   1.6 mph /  2.6 km/h 82 % 0.0 in /  0 mm
21:57 6.6 °F /  -14.1 °C 3.7 °F /  -15.7 °C 1019.2 in /  34510.1 hPa Calm     82 % 0.0 in /  0 mm
22:02 6.3 °F /  -14.3 °C 4.0 °F /  -15.6 °C 1019.2 in /  34510.1 hPa Calm   1.6 mph /  2.6 km/h 85 % 0.0 in /  0 mm
22:12 6.2 °F /  -14.3 °C 4.0 °F /  -15.6 °C 1019.2 in /  34510.1 hPa Calm   1.6 mph /  2.6 km/h 86 % 0.0 in /  0 mm
22:17 6.1 °F /  -14.4 °C 3.9 °F /  -15.6 °C 1019.2 in /  34510.1 hPa Calm   1.6 mph /  2.6 km/h 86 % 0.0 in /  0 mm
22:22 5.9 °F /  -14.5 °C 3.9 °F /  -15.6 °C 1019.2 in /  34510.1 hPa Calm   1.6 mph /  2.6 km/h 87 % 0.0 in /  0 mm
22:27 5.9 °F /  -14.5 °C 3.9 °F /  -15.6 °C 1019.2 in /  34510.1 hPa Calm     87 % 0.0 in /  0 mm
22:37 5.7 °F /  -14.6 °C 3.9 °F /  -15.6 °C 1019.2 in /  34510.1 hPa Calm   1.6 mph /  2.6 km/h 88 % 0.0 in /  0 mm
22:42 5.6 °F /  -14.7 °C 3.9 °F /  -15.6 °C 1019.2 in /  34510.1 hPa Calm   1.6 mph /  2.6 km/h 89 % 0.0 in /  0 mm
22:47 5.5 °F /  -14.7 °C 3.7 °F /  -15.7 °C 1019.5 in /  34520.3 hPa Calm   1.6 mph /  2.6 km/h 88 % 0.0 in /  0 mm
22:52 5.4 °F /  -14.8 °C 3.7 °F /  -15.7 °C 1019.5 in /  34520.3 hPa Calm   1.6 mph /  2.6 km/h 89 % 0.0 in /  0 mm
22:57 5.4 °F /  -14.8 °C 3.7 °F /  -15.7 °C 1019.2 in /  34510.1 hPa Calm     89 % 0.0 in /  0 mm
23:02 5.4 °F /  -14.8 °C 3.7 °F /  -15.7 °C 1019.5 in /  34520.3 hPa Calm     89 % 0.0 in /  0 mm
23:12 5.3 °F /  -14.8 °C 3.6 °F /  -15.8 °C 1019.5 in /  34520.3 hPa Calm     89 % 0.0 in /  0 mm
23:17 5.2 °F /  -14.9 °C 3.5 °F /  -15.8 °C 1019.5 in /  34520.3 hPa Calm     89 % 0.0 in /  0 mm
23:22 5.4 °F /  -14.8 °C 3.9 °F /  -15.6 °C 1019.5 in /  34520.3 hPa Calm   1.6 mph /  2.6 km/h 90 % 0.0 in /  0 mm
23:32 5.6 °F /  -14.7 °C 3.9 °F /  -15.6 °C 1019.5 in /  34520.3 hPa Calm   1.6 mph /  2.6 km/h 89 % 0.0 in /  0 mm
23:37 5.6 °F /  -14.7 °C 3.9 °F /  -15.6 °C 1019.5 in /  34520.3 hPa Calm   1.6 mph /  2.6 km/h 89 % 0.0 in /  0 mm
23:42 5.6 °F /  -14.7 °C 4.1 °F /  -15.5 °C 1019.5 in /  34520.3 hPa Calm   1.6 mph /  2.6 km/h 90 % 0.0 in /  0 mm
23:52 5.6 °F /  -14.7 °C 3.9 °F /  -15.6 °C 1019.5 in /  34520.3 hPa Calm   1.6 mph /  2.6 km/h 89 % 0.0 in /  0 mm
23:57 5.6 °F /  -14.7 °C 3.9 °F /  -15.6 °C 1019.2 in /  34510.1 hPa Calm   1.6 mph /  2.6 km/h 89 % 0.0 in /  0 mm
Meteo18
Compliments of Weather Underground - 4 mb

Script developed by  Jim McMurry - jmcmurry@mwt.net Adapted for the template by  Wim van der Kuil - Leuven-Template.eu

You find our weather info also at:

European Weather Network

Weather Underground

Equipment we use:

Weather-station
Davis Vue

Weather-program
Meteobridge

Weather-server
Raspberry PI 2 B+

Provider
1 and 1

Davis Vue

Meteobridge

Raspberry PI 2 B+

1 and 1